sensor_id;sensor_type;location;lat;lon;timestamp;temperature;humidity
75430;DHT22;64127;51.488;5.462;2023-04-10T00:02:04;12.60;83.40
75430;DHT22;64127;51.488;5.462;2023-04-10T00:04:36;12.60;83.30
75430;DHT22;64127;51.488;5.462;2023-04-10T00:07:09;12.60;83.30
75430;DHT22;64127;51.488;5.462;2023-04-10T00:09:41;12.60;83.30
75430;DHT22;64127;51.488;5.462;2023-04-10T00:12:13;12.50;83.20
75430;DHT22;64127;51.488;5.462;2023-04-10T00:14:46;12.60;83.30
75430;DHT22;64127;51.488;5.462;2023-04-10T00:17:18;12.50;83.20
75430;DHT22;64127;51.488;5.462;2023-04-10T00:19:50;12.50;83.30
75430;DHT22;64127;51.488;5.462;2023-04-10T00:22:22;12.50;83.30
75430;DHT22;64127;51.488;5.462;2023-04-10T00:24:54;12.50;83.30
75430;DHT22;64127;51.488;5.462;2023-04-10T00:27:26;12.50;83.30
75430;DHT22;64127;51.488;5.462;2023-04-10T00:29:58;12.50;83.30
75430;DHT22;64127;51.488;5.462;2023-04-10T00:32:30;12.50;83.40
75430;DHT22;64127;51.488;5.462;2023-04-10T00:35:02;12.40;83.40
75430;DHT22;64127;51.488;5.462;2023-04-10T00:37:34;12.40;83.50
75430;DHT22;64127;51.488;5.462;2023-04-10T00:40:07;12.40;83.50
75430;DHT22;64127;51.488;5.462;2023-04-10T00:42:40;12.40;83.50
75430;DHT22;64127;51.488;5.462;2023-04-10T00:45:12;12.40;83.60
75430;DHT22;64127;51.488;5.462;2023-04-10T00:47:44;12.30;83.60
75430;DHT22;64127;51.488;5.462;2023-04-10T00:50:16;12.30;83.70
75430;DHT22;64127;51.488;5.462;2023-04-10T00:52:49;12.30;83.70
75430;DHT22;64127;51.488;5.462;2023-04-10T00:55:22;12.30;84.00
75430;DHT22;64127;51.488;5.462;2023-04-10T00:57:55;12.20;83.90
75430;DHT22;64127;51.488;5.462;2023-04-10T01:00:28;12.30;84.10
75430;DHT22;64127;51.488;5.462;2023-04-10T01:03:00;12.20;83.90
75430;DHT22;64127;51.488;5.462;2023-04-10T01:05:38;12.20;83.90
75430;DHT22;64127;51.488;5.462;2023-04-10T01:12:07;12.20;84.20
75430;DHT22;64127;51.488;5.462;2023-04-10T01:17:59;12.10;84.30
75430;DHT22;64127;51.488;5.462;2023-04-10T01:20:37;12.00;84.30
75430;DHT22;64127;51.488;5.462;2023-04-10T01:23:46;12.00;84.40
75430;DHT22;64127;51.488;5.462;2023-04-10T01:29:25;12.00;84.50
75430;DHT22;64127;51.488;5.462;2023-04-10T01:32:12;12.00;84.70
75430;DHT22;64127;51.488;5.462;2023-04-10T01:34:53;11.90;84.70
75430;DHT22;64127;51.488;5.462;2023-04-10T01:37:30;11.90;84.80
75430;DHT22;64127;51.488;5.462;2023-04-10T01:40:08;11.90;84.80
75430;DHT22;64127;51.488;5.462;2023-04-10T01:42:53;11.90;84.90
75430;DHT22;64127;51.488;5.462;2023-04-10T01:45:27;11.90;84.90
75430;DHT22;64127;51.488;5.462;2023-04-10T01:48:00;11.90;84.80
75430;DHT22;64127;51.488;5.462;2023-04-10T01:50:33;11.90;84.80
75430;DHT22;64127;51.488;5.462;2023-04-10T01:53:07;11.90;84.80
75430;DHT22;64127;51.488;5.462;2023-04-10T01:55:40;11.90;84.90
75430;DHT22;64127;51.488;5.462;2023-04-10T01:58:13;11.80;85.00
75430;DHT22;64127;51.488;5.462;2023-04-10T02:00:46;11.90;85.30
75430;DHT22;64127;51.488;5.462;2023-04-10T02:03:18;11.80;85.20
75430;DHT22;64127;51.488;5.462;2023-04-10T02:05:53;11.80;85.20
75430;DHT22;64127;51.488;5.462;2023-04-10T02:14:10;11.80;85.80
75430;DHT22;64127;51.488;5.462;2023-04-10T02:16:45;11.70;85.90
75430;DHT22;64127;51.488;5.462;2023-04-10T02:19:19;11.70;86.10
75430;DHT22;64127;51.488;5.462;2023-04-10T02:21:54;11.60;86.20
75430;DHT22;64127;51.488;5.462;2023-04-10T02:24:27;11.60;86.60
75430;DHT22;64127;51.488;5.462;2023-04-10T02:27:00;11.60;86.80
75430;DHT22;64127;51.488;5.462;2023-04-10T02:29:32;11.60;87.00
75430;DHT22;64127;51.488;5.462;2023-04-10T02:32:04;11.50;87.10
75430;DHT22;64127;51.488;5.462;2023-04-10T02:34:37;11.50;87.40
75430;DHT22;64127;51.488;5.462;2023-04-10T02:37:09;11.50;87.50
75430;DHT22;64127;51.488;5.462;2023-04-10T02:39:41;11.50;87.60
75430;DHT22;64127;51.488;5.462;2023-04-10T02:42:13;11.40;87.70
75430;DHT22;64127;51.488;5.462;2023-04-10T02:44:47;11.50;87.90
75430;DHT22;64127;51.488;5.462;2023-04-10T02:47:19;11.40;87.90
75430;DHT22;64127;51.488;5.462;2023-04-10T02:49:51;11.50;88.10
75430;DHT22;64127;51.488;5.462;2023-04-10T02:52:23;11.40;88.00
75430;DHT22;64127;51.488;5.462;2023-04-10T02:54:55;11.40;88.00
75430;DHT22;64127;51.488;5.462;2023-04-10T02:57:27;11.40;88.20
75430;DHT22;64127;51.488;5.462;2023-04-10T02:59:59;11.40;88.40
75430;DHT22;64127;51.488;5.462;2023-04-10T03:02:31;11.40;88.40
75430;DHT22;64127;51.488;5.462;2023-04-10T03:05:04;11.40;88.40
75430;DHT22;64127;51.488;5.462;2023-04-10T03:07:39;11.30;88.50
75430;DHT22;64127;51.488;5.462;2023-04-10T03:10:11;11.40;88.60
75430;DHT22;64127;51.488;5.462;2023-04-10T03:12:43;11.30;88.50
75430;DHT22;64127;51.488;5.462;2023-04-10T03:15:15;11.30;88.60
75430;DHT22;64127;51.488;5.462;2023-04-10T03:17:47;11.20;88.70
75430;DHT22;64127;51.488;5.462;2023-04-10T03:20:19;11.30;88.90
75430;DHT22;64127;51.488;5.462;2023-04-10T03:22:51;11.20;88.90
75430;DHT22;64127;51.488;5.462;2023-04-10T03:25:23;11.20;89.10
75430;DHT22;64127;51.488;5.462;2023-04-10T03:27:55;11.10;89.20
75430;DHT22;64127;51.488;5.462;2023-04-10T03:30:27;11.10;89.30
75430;DHT22;64127;51.488;5.462;2023-04-10T03:32:59;11.10;89.50
75430;DHT22;64127;51.488;5.462;2023-04-10T03:35:31;11.10;89.60
75430;DHT22;64127;51.488;5.462;2023-04-10T03:38:03;11.10;89.70
75430;DHT22;64127;51.488;5.462;2023-04-10T03:40:35;11.10;89.70
75430;DHT22;64127;51.488;5.462;2023-04-10T03:43:07;11.10;89.70
75430;DHT22;64127;51.488;5.462;2023-04-10T03:45:39;11.10;89.80
75430;DHT22;64127;51.488;5.462;2023-04-10T03:48:11;11.00;89.90
75430;DHT22;64127;51.488;5.462;2023-04-10T03:50:43;11.10;90.00
75430;DHT22;64127;51.488;5.462;2023-04-10T03:53:15;11.00;90.00
75430;DHT22;64127;51.488;5.462;2023-04-10T03:55:47;11.00;90.20
75430;DHT22;64127;51.488;5.462;2023-04-10T03:58:19;11.00;90.20
75430;DHT22;64127;51.488;5.462;2023-04-10T04:00:52;11.00;90.30
75430;DHT22;64127;51.488;5.462;2023-04-10T04:03:24;11.00;90.40
75430;DHT22;64127;51.488;5.462;2023-04-10T04:05:56;10.90;90.60
75430;DHT22;64127;51.488;5.462;2023-04-10T04:08:28;10.90;90.80
75430;DHT22;64127;51.488;5.462;2023-04-10T04:11:00;10.80;90.90
75430;DHT22;64127;51.488;5.462;2023-04-10T04:13:32;10.80;91.10
75430;DHT22;64127;51.488;5.462;2023-04-10T04:16:05;10.80;91.20
75430;DHT22;64127;51.488;5.462;2023-04-10T04:18:37;10.70;91.30
75430;DHT22;64127;51.488;5.462;2023-04-10T04:21:09;10.70;91.50
75430;DHT22;64127;51.488;5.462;2023-04-10T04:23:41;10.70;91.60
75430;DHT22;64127;51.488;5.462;2023-04-10T04:26:13;10.70;91.70
75430;DHT22;64127;51.488;5.462;2023-04-10T04:28:46;10.60;91.70
75430;DHT22;64127;51.488;5.462;2023-04-10T04:31:17;10.60;91.80
75430;DHT22;64127;51.488;5.462;2023-04-10T04:33:50;10.60;92.00
75430;DHT22;64127;51.488;5.462;2023-04-10T04:36:22;10.60;92.00
75430;DHT22;64127;51.488;5.462;2023-04-10T04:38:54;10.50;92.10
75430;DHT22;64127;51.488;5.462;2023-04-10T04:41:26;10.50;92.30
75430;DHT22;64127;51.488;5.462;2023-04-10T04:44:00;10.50;92.40
75430;DHT22;64127;51.488;5.462;2023-04-10T04:46:32;10.40;92.40
75430;DHT22;64127;51.488;5.462;2023-04-10T04:49:04;10.50;93.60
75430;DHT22;64127;51.488;5.462;2023-04-10T04:51:36;10.50;93.50
75430;DHT22;64127;51.488;5.462;2023-04-10T04:54:08;10.50;93.50
75430;DHT22;64127;51.488;5.462;2023-04-10T04:56:40;10.40;93.40
75430;DHT22;64127;51.488;5.462;2023-04-10T04:59:12;10.50;93.40
75430;DHT22;64127;51.488;5.462;2023-04-10T05:01:44;10.40;93.30
75430;DHT22;64127;51.488;5.462;2023-04-10T05:04:17;10.40;93.30
75430;DHT22;64127;51.488;5.462;2023-04-10T05:06:49;10.40;93.20
75430;DHT22;64127;51.488;5.462;2023-04-10T05:09:21;10.40;93.30
75430;DHT22;64127;51.488;5.462;2023-04-10T05:11:53;10.30;93.20
75430;DHT22;64127;51.488;5.462;2023-04-10T05:14:25;10.30;93.30
75430;DHT22;64127;51.488;5.462;2023-04-10T05:16:57;10.30;93.30
75430;DHT22;64127;51.488;5.462;2023-04-10T05:19:31;10.30;93.30
75430;DHT22;64127;51.488;5.462;2023-04-10T05:22:02;10.30;93.30
75430;DHT22;64127;51.488;5.462;2023-04-10T05:24:35;10.30;93.30
75430;DHT22;64127;51.488;5.462;2023-04-10T05:27:07;10.30;93.30
75430;DHT22;64127;51.488;5.462;2023-04-10T05:29:39;10.30;93.30
75430;DHT22;64127;51.488;5.462;2023-04-10T05:32:11;10.30;93.30
75430;DHT22;64127;51.488;5.462;2023-04-10T05:34:43;10.30;93.30
75430;DHT22;64127;51.488;5.462;2023-04-10T05:37:15;10.30;93.20
75430;DHT22;64127;51.488;5.462;2023-04-10T05:39:47;10.30;93.20
75430;DHT22;64127;51.488;5.462;2023-04-10T05:42:19;10.30;93.10
75430;DHT22;64127;51.488;5.462;2023-04-10T05:44:54;10.30;93.00
75430;DHT22;64127;51.488;5.462;2023-04-10T05:47:26;10.30;93.00
75430;DHT22;64127;51.488;5.462;2023-04-10T05:49:58;10.40;93.00
75430;DHT22;64127;51.488;5.462;2023-04-10T05:52:30;10.40;92.90
75430;DHT22;64127;51.488;5.462;2023-04-10T05:55:02;10.40;92.80
75430;DHT22;64127;51.488;5.462;2023-04-10T05:57:34;10.50;92.80
75430;DHT22;64127;51.488;5.462;2023-04-10T06:00:07;10.50;92.80
75430;DHT22;64127;51.488;5.462;2023-04-10T06:02:39;10.50;92.70
75430;DHT22;64127;51.488;5.462;2023-04-10T06:05:12;10.50;92.70
75430;DHT22;64127;51.488;5.462;2023-04-10T06:07:44;10.60;92.70
75430;DHT22;64127;51.488;5.462;2023-04-10T06:10:16;10.60;92.60
75430;DHT22;64127;51.488;5.462;2023-04-10T06:12:48;10.60;92.50
75430;DHT22;64127;51.488;5.462;2023-04-10T06:15:20;10.60;92.40
75430;DHT22;64127;51.488;5.462;2023-04-10T06:17:52;10.70;92.40
75430;DHT22;64127;51.488;5.462;2023-04-10T06:20:24;10.80;92.30
75430;DHT22;64127;51.488;5.462;2023-04-10T06:22:57;10.80;92.20
75430;DHT22;64127;51.488;5.462;2023-04-10T06:25:29;10.80;92.10
75430;DHT22;64127;51.488;5.462;2023-04-10T06:28:01;10.90;92.10
75430;DHT22;64127;51.488;5.462;2023-04-10T06:30:33;10.90;92.10
75430;DHT22;64127;51.488;5.462;2023-04-10T06:33:07;11.00;91.90
75430;DHT22;64127;51.488;5.462;2023-04-10T06:35:39;11.00;91.70
75430;DHT22;64127;51.488;5.462;2023-04-10T06:38:12;11.10;91.60
75430;DHT22;64127;51.488;5.462;2023-04-10T06:40:44;11.10;91.40
75430;DHT22;64127;51.488;5.462;2023-04-10T06:43:16;11.10;91.20
75430;DHT22;64127;51.488;5.462;2023-04-10T06:45:48;11.20;91.10
75430;DHT22;64127;51.488;5.462;2023-04-10T06:48:20;11.20;91.00
75430;DHT22;64127;51.488;5.462;2023-04-10T06:50:52;11.30;91.00
75430;DHT22;64127;51.488;5.462;2023-04-10T06:53:24;11.30;90.80
75430;DHT22;64127;51.488;5.462;2023-04-10T06:55:56;11.30;90.70
75430;DHT22;64127;51.488;5.462;2023-04-10T06:58:33;11.40;90.60
75430;DHT22;64127;51.488;5.462;2023-04-10T07:01:05;11.40;90.50
75430;DHT22;64127;51.488;5.462;2023-04-10T07:03:37;11.40;90.40
75430;DHT22;64127;51.488;5.462;2023-04-10T07:06:10;11.40;90.40
75430;DHT22;64127;51.488;5.462;2023-04-10T07:08:42;11.40;90.40
75430;DHT22;64127;51.488;5.462;2023-04-10T07:11:14;11.50;90.50
75430;DHT22;64127;51.488;5.462;2023-04-10T07:13:46;11.50;90.40
75430;DHT22;64127;51.488;5.462;2023-04-10T07:16:18;11.50;90.30
75430;DHT22;64127;51.488;5.462;2023-04-10T07:18:50;11.60;90.20
75430;DHT22;64127;51.488;5.462;2023-04-10T07:21:22;11.60;90.10
75430;DHT22;64127;51.488;5.462;2023-04-10T07:23:55;11.60;90.00
75430;DHT22;64127;51.488;5.462;2023-04-10T07:26:26;11.60;89.80
75430;DHT22;64127;51.488;5.462;2023-04-10T07:28:59;11.70;89.70
75430;DHT22;64127;51.488;5.462;2023-04-10T07:31:31;11.70;89.20
75430;DHT22;64127;51.488;5.462;2023-04-10T07:34:03;11.80;88.90
75430;DHT22;64127;51.488;5.462;2023-04-10T07:36:35;11.80;88.30
75430;DHT22;64127;51.488;5.462;2023-04-10T07:39:07;11.90;88.30
75430;DHT22;64127;51.488;5.462;2023-04-10T07:41:39;12.00;88.10
75430;DHT22;64127;51.488;5.462;2023-04-10T07:44:11;12.00;87.60
75430;DHT22;64127;51.488;5.462;2023-04-10T07:46:43;12.10;87.20
75430;DHT22;64127;51.488;5.462;2023-04-10T07:49:15;12.20;87.00
75430;DHT22;64127;51.488;5.462;2023-04-10T07:51:47;12.30;86.60
75430;DHT22;64127;51.488;5.462;2023-04-10T07:54:19;12.40;86.00
75430;DHT22;64127;51.488;5.462;2023-04-10T07:56:52;12.60;86.10
75430;DHT22;64127;51.488;5.462;2023-04-10T07:59:26;12.70;85.30
75430;DHT22;64127;51.488;5.462;2023-04-10T08:01:59;12.90;84.90
75430;DHT22;64127;51.488;5.462;2023-04-10T08:04:31;13.10;84.30
75430;DHT22;64127;51.488;5.462;2023-04-10T08:07:03;13.30;83.50
75430;DHT22;64127;51.488;5.462;2023-04-10T08:09:35;13.50;83.20
75430;DHT22;64127;51.488;5.462;2023-04-10T08:12:07;13.70;82.60
75430;DHT22;64127;51.488;5.462;2023-04-10T08:14:39;13.80;82.80
75430;DHT22;64127;51.488;5.462;2023-04-10T08:17:11;14.00;81.90
75430;DHT22;64127;51.488;5.462;2023-04-10T08:19:45;14.00;81.40
75430;DHT22;64127;51.488;5.462;2023-04-10T08:22:17;14.10;81.20
75430;DHT22;64127;51.488;5.462;2023-04-10T08:24:49;14.10;80.90
75430;DHT22;64127;51.488;5.462;2023-04-10T08:27:21;14.10;81.40
75430;DHT22;64127;51.488;5.462;2023-04-10T08:29:53;14.00;80.60
75430;DHT22;64127;51.488;5.462;2023-04-10T08:32:26;14.00;80.80
75430;DHT22;64127;51.488;5.462;2023-04-10T08:34:58;13.90;80.60
75430;DHT22;64127;51.488;5.462;2023-04-10T08:37:30;14.00;80.90
75430;DHT22;64127;51.488;5.462;2023-04-10T08:40:03;14.00;80.90
75430;DHT22;64127;51.488;5.462;2023-04-10T08:42:35;14.00;80.90
75430;DHT22;64127;51.488;5.462;2023-04-10T08:45:08;14.00;80.80
75430;DHT22;64127;51.488;5.462;2023-04-10T08:47:43;14.10;80.80
75430;DHT22;64127;51.488;5.462;2023-04-10T08:50:17;14.10;80.60
75430;DHT22;64127;51.488;5.462;2023-04-10T08:52:51;14.10;80.60
75430;DHT22;64127;51.488;5.462;2023-04-10T08:55:27;14.10;80.80
75430;DHT22;64127;51.488;5.462;2023-04-10T08:57:59;14.20;81.00
75430;DHT22;64127;51.488;5.462;2023-04-10T09:00:33;14.20;81.10
75430;DHT22;64127;51.488;5.462;2023-04-10T09:03:10;14.30;81.10
75430;DHT22;64127;51.488;5.462;2023-04-10T09:05:45;14.30;81.00
75430;DHT22;64127;51.488;5.462;2023-04-10T09:08:17;14.30;81.00
75430;DHT22;64127;51.488;5.462;2023-04-10T09:10:49;14.30;81.00
75430;DHT22;64127;51.488;5.462;2023-04-10T09:13:43;14.30;80.90
75430;DHT22;64127;51.488;5.462;2023-04-10T09:16:15;14.30;80.80
75430;DHT22;64127;51.488;5.462;2023-04-10T09:18:50;14.30;80.80
75430;DHT22;64127;51.488;5.462;2023-04-10T09:21:22;14.30;81.00
75430;DHT22;64127;51.488;5.462;2023-04-10T09:24:00;14.40;81.20
75430;DHT22;64127;51.488;5.462;2023-04-10T09:26:32;14.40;81.10
75430;DHT22;64127;51.488;5.462;2023-04-10T09:29:06;14.50;80.90
75430;DHT22;64127;51.488;5.462;2023-04-10T09:31:38;14.50;80.70
75430;DHT22;64127;51.488;5.462;2023-04-10T09:34:17;14.50;80.70
75430;DHT22;64127;51.488;5.462;2023-04-10T09:36:52;14.60;80.60
75430;DHT22;64127;51.488;5.462;2023-04-10T09:39:36;14.60;80.70
75430;DHT22;64127;51.488;5.462;2023-04-10T09:42:14;14.60;80.60
75430;DHT22;64127;51.488;5.462;2023-04-10T09:44:46;14.70;80.70
75430;DHT22;64127;51.488;5.462;2023-04-10T09:47:19;14.70;80.70
75430;DHT22;64127;51.488;5.462;2023-04-10T09:49:58;14.70;80.80
75430;DHT22;64127;51.488;5.462;2023-04-10T09:52:33;14.70;80.70
75430;DHT22;64127;51.488;5.462;2023-04-10T09:55:06;14.70;80.80
75430;DHT22;64127;51.488;5.462;2023-04-10T09:57:39;14.70;80.80
75430;DHT22;64127;51.488;5.462;2023-04-10T10:00:11;14.70;80.80
75430;DHT22;64127;51.488;5.462;2023-04-10T10:02:45;14.70;80.80
75430;DHT22;64127;51.488;5.462;2023-04-10T10:05:20;14.80;81.00
75430;DHT22;64127;51.488;5.462;2023-04-10T10:07:53;14.80;81.00
75430;DHT22;64127;51.488;5.462;2023-04-10T10:10:26;14.80;80.90
75430;DHT22;64127;51.488;5.462;2023-04-10T10:13:01;14.90;80.90
75430;DHT22;64127;51.488;5.462;2023-04-10T10:15:38;15.00;81.00
75430;DHT22;64127;51.488;5.462;2023-04-10T10:21:28;15.20;80.40
75430;DHT22;64127;51.488;5.462;2023-04-10T10:24:02;15.40;79.90
75430;DHT22;64127;51.488;5.462;2023-04-10T10:26:39;15.50;79.40
75430;DHT22;64127;51.488;5.462;2023-04-10T10:29:14;15.60;78.80
75430;DHT22;64127;51.488;5.462;2023-04-10T10:31:49;15.70;78.50
75430;DHT22;64127;51.488;5.462;2023-04-10T10:34:22;15.90;77.50
75430;DHT22;64127;51.488;5.462;2023-04-10T10:36:57;16.10;77.40
75430;DHT22;64127;51.488;5.462;2023-04-10T10:48:11;16.70;74.60
75430;DHT22;64127;51.488;5.462;2023-04-10T10:53:40;16.80;74.20
75430;DHT22;64127;51.488;5.462;2023-04-10T10:58:55;16.70;73.40
75430;DHT22;64127;51.488;5.462;2023-04-10T11:01:30;16.70;73.60
75430;DHT22;64127;51.488;5.462;2023-04-10T11:04:44;16.70;73.60
75430;DHT22;64127;51.488;5.462;2023-04-10T11:07:17;16.80;73.40
75430;DHT22;64127;51.488;5.462;2023-04-10T11:09:53;16.90;73.30
75430;DHT22;64127;51.488;5.462;2023-04-10T11:12:27;17.00;73.10
75430;DHT22;64127;51.488;5.462;2023-04-10T11:15:03;17.20;72.60
75430;DHT22;64127;51.488;5.462;2023-04-10T11:17:49;17.40;71.80
75430;DHT22;64127;51.488;5.462;2023-04-10T11:20:22;17.50;71.00
75430;DHT22;64127;51.488;5.462;2023-04-10T11:23:11;17.50;70.70
75430;DHT22;64127;51.488;5.462;2023-04-10T11:25:53;17.60;70.50
75430;DHT22;64127;51.488;5.462;2023-04-10T11:28:35;17.80;70.50
75430;DHT22;64127;51.488;5.462;2023-04-10T11:31:21;18.00;70.20
75430;DHT22;64127;51.488;5.462;2023-04-10T11:34:05;18.20;70.00
75430;DHT22;64127;51.488;5.462;2023-04-10T11:36:40;18.40;69.20
75430;DHT22;64127;51.488;5.462;2023-04-10T11:39:15;18.50;68.80
75430;DHT22;64127;51.488;5.462;2023-04-10T11:41:53;18.40;68.90
75430;DHT22;64127;51.488;5.462;2023-04-10T11:44:32;18.40;68.00
75430;DHT22;64127;51.488;5.462;2023-04-10T11:47:12;18.20;67.50
75430;DHT22;64127;51.488;5.462;2023-04-10T11:49:52;18.10;67.80
75430;DHT22;64127;51.488;5.462;2023-04-10T11:52:29;18.00;67.90
75430;DHT22;64127;51.488;5.462;2023-04-10T11:55:01;17.90;68.10
75430;DHT22;64127;51.488;5.462;2023-04-10T11:57:34;17.90;68.40
75430;DHT22;64127;51.488;5.462;2023-04-10T12:00:07;18.00;68.50
75430;DHT22;64127;51.488;5.462;2023-04-10T12:02:51;18.00;68.40
75430;DHT22;64127;51.488;5.462;2023-04-10T12:05:24;18.00;68.50
75430;DHT22;64127;51.488;5.462;2023-04-10T12:07:56;18.00;68.40
75430;DHT22;64127;51.488;5.462;2023-04-10T12:10:44;18.00;68.00
75430;DHT22;64127;51.488;5.462;2023-04-10T12:13:27;18.10;67.80
75430;DHT22;64127;51.488;5.462;2023-04-10T12:16:02;18.10;67.80
75430;DHT22;64127;51.488;5.462;2023-04-10T12:18:36;18.20;67.60
75430;DHT22;64127;51.488;5.462;2023-04-10T12:21:08;18.20;67.50
75430;DHT22;64127;51.488;5.462;2023-04-10T12:23:41;18.10;67.20
75430;DHT22;64127;51.488;5.462;2023-04-10T12:26:15;18.10;67.50
75430;DHT22;64127;51.488;5.462;2023-04-10T12:28:57;18.00;67.60
75430;DHT22;64127;51.488;5.462;2023-04-10T12:31:31;18.00;67.90
75430;DHT22;64127;51.488;5.462;2023-04-10T12:34:05;18.00;68.00
75430;DHT22;64127;51.488;5.462;2023-04-10T12:36:40;18.10;68.10
75430;DHT22;64127;51.488;5.462;2023-04-10T12:39:23;18.10;67.80
75430;DHT22;64127;51.488;5.462;2023-04-10T12:42:18;18.00;67.70
75430;DHT22;64127;51.488;5.462;2023-04-10T12:44:59;18.00;68.00
75430;DHT22;64127;51.488;5.462;2023-04-10T12:47:48;18.00;68.00
75430;DHT22;64127;51.488;5.462;2023-04-10T12:50:25;18.00;68.00
75430;DHT22;64127;51.488;5.462;2023-04-10T12:53:03;18.00;68.00
75430;DHT22;64127;51.488;5.462;2023-04-10T12:55:40;17.90;67.80
75430;DHT22;64127;51.488;5.462;2023-04-10T12:58:17;17.90;68.00
75430;DHT22;64127;51.488;5.462;2023-04-10T13:00:54;17.80;68.10
75430;DHT22;64127;51.488;5.462;2023-04-10T13:03:27;17.80;68.20
75430;DHT22;64127;51.488;5.462;2023-04-10T13:05:59;17.70;68.20
75430;DHT22;64127;51.488;5.462;2023-04-10T13:08:31;17.60;68.10
75430;DHT22;64127;51.488;5.462;2023-04-10T13:11:04;17.60;68.20
75430;DHT22;64127;51.488;5.462;2023-04-10T13:13:37;17.60;68.40
75430;DHT22;64127;51.488;5.462;2023-04-10T13:16:09;17.60;68.60
75430;DHT22;64127;51.488;5.462;2023-04-10T13:18:43;17.60;68.40
75430;DHT22;64127;51.488;5.462;2023-04-10T13:21:15;17.60;68.40
75430;DHT22;64127;51.488;5.462;2023-04-10T13:23:56;17.60;68.60
75430;DHT22;64127;51.488;5.462;2023-04-10T13:26:28;17.60;68.70
75430;DHT22;64127;51.488;5.462;2023-04-10T13:29:00;17.60;68.50
75430;DHT22;64127;51.488;5.462;2023-04-10T13:31:32;17.60;68.40
75430;DHT22;64127;51.488;5.462;2023-04-10T13:34:04;17.60;68.10
75430;DHT22;64127;51.488;5.462;2023-04-10T13:36:36;17.60;67.80
75430;DHT22;64127;51.488;5.462;2023-04-10T13:39:08;17.50;68.00
75430;DHT22;64127;51.488;5.462;2023-04-10T13:41:40;17.50;67.90
75430;DHT22;64127;51.488;5.462;2023-04-10T13:44:12;17.50;67.90
75430;DHT22;64127;51.488;5.462;2023-04-10T13:46:44;17.50;68.00
75430;DHT22;64127;51.488;5.462;2023-04-10T13:49:16;17.50;68.10
75430;DHT22;64127;51.488;5.462;2023-04-10T13:51:48;17.60;68.30
75430;DHT22;64127;51.488;5.462;2023-04-10T13:54:21;17.60;68.50
75430;DHT22;64127;51.488;5.462;2023-04-10T13:56:54;17.60;68.50
75430;DHT22;64127;51.488;5.462;2023-04-10T13:59:26;17.60;68.60
75430;DHT22;64127;51.488;5.462;2023-04-10T14:01:58;17.70;69.10
75430;DHT22;64127;51.488;5.462;2023-04-10T14:04:30;17.70;69.40
75430;DHT22;64127;51.488;5.462;2023-04-10T14:07:02;17.70;69.60
75430;DHT22;64127;51.488;5.462;2023-04-10T14:09:34;17.70;70.00
75430;DHT22;64127;51.488;5.462;2023-04-10T14:12:06;17.70;70.10
75430;DHT22;64127;51.488;5.462;2023-04-10T14:14:38;17.60;70.10
75430;DHT22;64127;51.488;5.462;2023-04-10T14:17:10;17.60;70.40
75430;DHT22;64127;51.488;5.462;2023-04-10T14:19:42;17.60;70.40
75430;DHT22;64127;51.488;5.462;2023-04-10T14:22:17;17.50;70.50
75430;DHT22;64127;51.488;5.462;2023-04-10T14:24:49;17.50;70.80
75430;DHT22;64127;51.488;5.462;2023-04-10T14:27:26;17.40;71.30
75430;DHT22;64127;51.488;5.462;2023-04-10T14:29:58;17.40;72.20
75430;DHT22;64127;51.488;5.462;2023-04-10T14:32:30;17.20;73.20
75430;DHT22;64127;51.488;5.462;2023-04-10T14:35:03;17.10;74.10
75430;DHT22;64127;51.488;5.462;2023-04-10T14:37:35;17.00;74.60
75430;DHT22;64127;51.488;5.462;2023-04-10T14:40:08;16.90;75.60
75430;DHT22;64127;51.488;5.462;2023-04-10T14:42:40;16.80;76.40
75430;DHT22;64127;51.488;5.462;2023-04-10T14:45:12;16.80;77.20
75430;DHT22;64127;51.488;5.462;2023-04-10T14:47:44;16.70;78.20
75430;DHT22;64127;51.488;5.462;2023-04-10T14:50:18;16.60;79.30
75430;DHT22;64127;51.488;5.462;2023-04-10T14:52:51;16.50;80.40
75430;DHT22;64127;51.488;5.462;2023-04-10T14:55:23;16.50;81.70
75430;DHT22;64127;51.488;5.462;2023-04-10T14:57:55;16.40;82.50
75430;DHT22;64127;51.488;5.462;2023-04-10T15:00:29;16.30;83.40
75430;DHT22;64127;51.488;5.462;2023-04-10T15:03:01;16.30;84.40
75430;DHT22;64127;51.488;5.462;2023-04-10T15:05:34;16.20;84.40
75430;DHT22;64127;51.488;5.462;2023-04-10T15:08:06;16.20;84.40
75430;DHT22;64127;51.488;5.462;2023-04-10T15:10:38;16.20;84.40
75430;DHT22;64127;51.488;5.462;2023-04-10T15:13:10;16.10;84.00
75430;DHT22;64127;51.488;5.462;2023-04-10T15:15:43;16.20;83.80
75430;DHT22;64127;51.488;5.462;2023-04-10T15:18:16;16.20;83.60
75430;DHT22;64127;51.488;5.462;2023-04-10T15:20:48;16.20;83.20
75430;DHT22;64127;51.488;5.462;2023-04-10T15:23:20;16.20;83.10
75430;DHT22;64127;51.488;5.462;2023-04-10T15:25:52;16.20;83.00
75430;DHT22;64127;51.488;5.462;2023-04-10T15:28:24;16.20;83.20
75430;DHT22;64127;51.488;5.462;2023-04-10T15:30:58;16.20;83.40
75430;DHT22;64127;51.488;5.462;2023-04-10T15:33:30;16.20;84.70
75430;DHT22;64127;51.488;5.462;2023-04-10T15:36:03;16.10;84.20
75430;DHT22;64127;51.488;5.462;2023-04-10T15:38:36;16.10;84.40
75430;DHT22;64127;51.488;5.462;2023-04-10T15:41:09;16.20;84.50
75430;DHT22;64127;51.488;5.462;2023-04-10T15:43:42;16.20;84.50
75430;DHT22;64127;51.488;5.462;2023-04-10T15:46:14;16.20;84.30
75430;DHT22;64127;51.488;5.462;2023-04-10T15:48:48;16.20;84.30
75430;DHT22;64127;51.488;5.462;2023-04-10T15:51:20;16.20;84.20
75430;DHT22;64127;51.488;5.462;2023-04-10T15:53:52;16.20;84.40
75430;DHT22;64127;51.488;5.462;2023-04-10T15:56:27;16.20;84.60
75430;DHT22;64127;51.488;5.462;2023-04-10T15:58:59;16.20;84.60
75430;DHT22;64127;51.488;5.462;2023-04-10T16:01:31;16.20;85.00
75430;DHT22;64127;51.488;5.462;2023-04-10T16:04:03;16.20;85.60
75430;DHT22;64127;51.488;5.462;2023-04-10T16:06:35;16.10;85.70
75430;DHT22;64127;51.488;5.462;2023-04-10T16:09:07;16.10;85.70
75430;DHT22;64127;51.488;5.462;2023-04-10T16:11:55;16.10;86.00
75430;DHT22;64127;51.488;5.462;2023-04-10T16:14:28;16.10;86.30
75430;DHT22;64127;51.488;5.462;2023-04-10T16:17:00;16.10;86.50
75430;DHT22;64127;51.488;5.462;2023-04-10T16:19:32;16.10;86.80
75430;DHT22;64127;51.488;5.462;2023-04-10T16:22:04;16.00;87.10
75430;DHT22;64127;51.488;5.462;2023-04-10T16:24:36;16.00;87.20
75430;DHT22;64127;51.488;5.462;2023-04-10T16:27:08;16.00;87.20
75430;DHT22;64127;51.488;5.462;2023-04-10T16:29:40;16.00;87.10
75430;DHT22;64127;51.488;5.462;2023-04-10T16:32:12;16.00;87.30
75430;DHT22;64127;51.488;5.462;2023-04-10T16:34:44;16.00;87.60
75430;DHT22;64127;51.488;5.462;2023-04-10T16:37:16;16.00;87.90
75430;DHT22;64127;51.488;5.462;2023-04-10T16:39:48;16.00;88.50
75430;DHT22;64127;51.488;5.462;2023-04-10T16:42:21;16.00;89.80
75430;DHT22;64127;51.488;5.462;2023-04-10T16:44:53;15.90;90.70